»·PEaware :: N715MG KLAX-KSNA

N715MG :: KLAX-KSNA

FLIGHT INFORMATION

Flight Status: Arrived
Operator: Privately registered:
United States
More flights under this callsign
Pilot: Jonathan W. (21112)
Aircraft: SOCATA TBM-900
(TBM9)
More flights by this aircraft type
Origin: KLAX Los Angeles Intl
United States
Destination: KSNA John Wayne-Orange Co
United States
More flights between these airports :: More routes between these airports
Route: SLI8 SLI
File this flight plan on PilotEdge
Remarks: For I-6 rating
Altitude:
(Current/Filed)
5,000ft
Speed:
(Current/Filed)
180kts
Departed: 27-Nov-18 10:05 AM
Arrived: 27-Nov-18 10:54 AM
Distance/Time
Traveled:
31nm/0:49
Distance/Time
To Go:
Arrived

Flight Plot

Page will automatically refresh every two minutes.

Flight plan parsing failed; only flown route is shown


Map Options




Map Legend


Flown Route
Filed Route
Departure Airport
Arrival Airport
Navaid (VOR, NDB)
Fix

Horizontal Profiles

Position Reports

Time Latitude Longitude Heading Altitude Ground
Speed
27-Nov-18 09:33 33.933264 -118.397424 264 108ft 0kts
27-Nov-18 09:34 33.933264 -118.397424 264 108ft 0kts
27-Nov-18 09:35 33.933264 -118.397424 264 108ft 0kts
27-Nov-18 09:36 33.933264 -118.397424 264 108ft 0kts
27-Nov-18 09:37 33.933264 -118.397424 264 108ft 0kts
27-Nov-18 09:38 33.933264 -118.397424 264 108ft 0kts
27-Nov-18 09:39 33.933264 -118.397424 264 108ft 0kts
27-Nov-18 09:40 33.933264 -118.397424 264 108ft 0kts
27-Nov-18 09:41 33.933264 -118.397424 264 108ft 0kts
27-Nov-18 09:42 33.933264 -118.397424 264 108ft 0kts
27-Nov-18 09:43 33.933264 -118.397424 264 108ft 0kts
27-Nov-18 09:44 33.933264 -118.397424 264 108ft 0kts
27-Nov-18 09:45 33.933264 -118.397424 264 108ft 0kts
27-Nov-18 09:46 33.933264 -118.397424 264 108ft 0kts
27-Nov-18 09:47 33.933264 -118.397424 264 108ft 0kts
27-Nov-18 09:48 33.933264 -118.397424 264 108ft 0kts
27-Nov-18 09:49 33.933264 -118.397424 264 108ft 0kts
27-Nov-18 09:50 33.933264 -118.397424 264 108ft 0kts
27-Nov-18 09:51 33.933264 -118.397424 264 108ft 0kts
27-Nov-18 09:52 33.933264 -118.397424 264 108ft 0kts
27-Nov-18 09:53 33.933264 -118.397424 264 108ft 0kts
27-Nov-18 09:54 33.933264 -118.397424 264 108ft 0kts
27-Nov-18 09:55 33.933264 -118.397424 264 108ft 0kts
27-Nov-18 09:56 33.933264 -118.397427 264 108ft 0kts
27-Nov-18 09:57 33.933264 -118.397427 264 108ft 0kts
27-Nov-18 09:58 33.933264 -118.397427 264 108ft 0kts
27-Nov-18 09:59 33.933267 -118.397494 282 108ft 4kts
27-Nov-18 10:00 33.934461 -118.397927 55 108ft 17kts
27-Nov-18 10:01 33.934966 -118.394143 82 103ft 24kts
27-Nov-18 10:02 33.935459 -118.389295 82 99ft 27kts
27-Nov-18 10:03 33.935944 -118.384528 84 98ft 19kts
27-Nov-18 10:04 33.936132 -118.383234 68 95ft 12kts
27-Nov-18 10:05 33.936459 -118.382798 32 95ft 0kts
27-Nov-18 10:06 33.936624 -118.382770 355 95ft 5kts
27-Nov-18 10:07 33.937282 -118.383859 263 96ft 28kts
27-Nov-18 10:08 33.934854 -118.399935 261 340ft 137kts
27-Nov-18 10:09 33.931884 -118.428922 263 2008ft 130kts
27-Nov-18 10:10 33.919398 -118.453089 213 3162ft 156kts
27-Nov-18 10:11 33.894145 -118.472916 213 3891ft 186kts
27-Nov-18 10:12 33.864522 -118.496083 213 3855ft 189kts
27-Nov-18 10:13 33.836572 -118.517889 213 4821ft 147kts
27-Nov-18 10:14 33.807389 -118.540647 213 4876ft 183kts
27-Nov-18 10:15 33.772090 -118.568185 213 4862ft 200kts
27-Nov-18 10:16 33.733336 -118.580318 140 4858ft 204kts
27-Nov-18 10:17 33.709692 -118.537266 122 4850ft 195kts
27-Nov-18 10:18 33.687835 -118.495096 122 4851ft 190kts
27-Nov-18 10:19 33.666390 -118.453705 122 4852ft 188kts
27-Nov-18 10:20 33.652863 -118.412532 67 4883ft 185kts
27-Nov-18 10:21 33.671458 -118.372461 67 4895ft 185kts
27-Nov-18 10:22 33.684835 -118.334579 67 4890ft 186kts
27-Nov-18 10:23 33.699824 -118.292139 67 4997ft 182kts
27-Nov-18 10:24 33.714775 -118.249749 67 5001ft 185kts
27-Nov-18 10:25 33.729726 -118.207304 67 5000ft 186kts
27-Nov-18 10:26 33.744038 -118.166620 67 5000ft 186kts
27-Nov-18 10:27 33.758520 -118.125401 67 5000ft 187kts
27-Nov-18 10:28 33.772954 -118.084264 67 5000ft 187kts
27-Nov-18 10:29 33.787385 -118.043146 67 5000ft 187kts
27-Nov-18 10:30 33.801920 -118.002525 64 4525ft 193kts
27-Nov-18 10:31 33.818426 -117.962156 63 3996ft 190kts
27-Nov-18 10:32 33.834119 -117.923935 63 3991ft 175kts
27-Nov-18 10:33 33.849003 -117.887647 63 3995ft 167kts
27-Nov-18 10:34 33.863702 -117.851771 63 3997ft 163kts
27-Nov-18 10:35 33.878171 -117.816421 63 3999ft 162kts
27-Nov-18 10:36 33.892482 -117.781420 63 3999ft 161kts
27-Nov-18 10:37 33.906802 -117.746360 63 3999ft 160kts
27-Nov-18 10:38 33.921488 -117.712004 46 3993ft 160kts
27-Nov-18 10:39 33.949705 -117.693020 27 3662ft 176kts
27-Nov-18 10:40 33.980008 -117.673869 27 3492ft 170kts
27-Nov-18 10:41 34.007547 -117.677261 292 3497ft 159kts
27-Nov-18 10:42 33.990234 -117.701750 187 3508ft 153kts
27-Nov-18 10:43 33.959956 -117.705283 183 3499ft 152kts
27-Nov-18 10:44 33.929591 -117.710729 208 3499ft 151kts
27-Nov-18 10:45 33.901999 -117.727878 206 3500ft 151kts
27-Nov-18 10:46 33.875297 -117.744324 206 3499ft 151kts
27-Nov-18 10:47 33.848391 -117.760948 207 3499ft 150kts
27-Nov-18 10:48 33.822754 -117.776842 207 3062ft 136kts
27-Nov-18 10:49 33.799008 -117.791608 207 2620ft 118kts
27-Nov-18 10:50 33.779265 -117.803904 207 2152ft 106kts
27-Nov-18 10:51 33.761037 -117.815281 207 1766ft 100kts
27-Nov-18 10:52 33.743539 -117.826226 207 1407ft 97kts
27-Nov-18 10:53 33.726228 -117.837076 207 1043ft 97kts
27-Nov-18 10:54 33.709703 -117.847454 207 692ft 97kts
27-Nov-18 10:55 33.695383 -117.856463 207 385ft 98kts
27-Nov-18 10:56 33.682070 -117.864805 208 116ft 97kts
27-Nov-18 10:57 33.673207 -117.870425 208 59ft 34kts
27-Nov-18 10:58 33.669558 -117.872042 151 59ft 17kts
27-Nov-18 10:59 33.669272 -117.871777 134 59ft 0kts
27-Nov-18 11:00 33.669272 -117.871777 134 59ft 0kts
27-Nov-18 11:01 33.669554 -117.870469 41 59ft 23kts
27-Nov-18 11:02 33.671438 -117.867368 39 59ft 0kts
27-Nov-18 11:03 33.671438 -117.867368 39 59ft 0kts
27-Nov-18 11:04 33.671438 -117.867368 39 59ft 0kts

Navigation Log

Ident Type
Flight plan parsing failed, navigation log unavailable